• Join FlightAware (Why Join?)
  • Login
  • US Flag 
Gobble Gobble! 
12:36PM EST


 

Airport Tracker/Info


-or-


 

Live Flight TrackerFlight Track Log ✈ UAL994 ✈ 22-Jul-2014 ✈ KCLE - KEWR

Flight Track Log - Related Links

Times and Time Zones

All times are in EDT time to prevent confusion due to time zone crossing. See the UAL994 flight status page for this flight to view local times or setup timezone preferences in your user account.

Time Position Orientation Groundspeed Altitude Reporting Facility
EDT Latitude Longitude Course Direction KTS MPH feet Rate Location/Type
11:25AM 41.3947 -81.8814 272° West 156 180 1,600  Level Cleveland Center
11:26AM 41.3964 -81.9417 272° West 169 194 3,100 1,800 Climbing Cleveland Center
11:26AM 41.3967 -81.9711 271° West 208 239 4,000 3,600 Climbing Cleveland Center
11:27AM 41.4033 -82.0344 278° West 206 237 6,800 3,000 Climbing Cleveland Center
11:27AM 41.4119 -82.0544 300° West 235 270 7,400 2,100 Climbing Cleveland Center
11:28AM 41.4622 -82.0867 334° Northwest 254 292 9,000 2,400 Climbing Cleveland Center
11:28AM 41.4922 -82.0958 347° North 296 341 10,100 2,700 Climbing Cleveland Center
11:29AM 41.5314 -82.0514 40° Northeast 299 344 11,800 2,700 Climbing Cleveland Center
11:30AM 41.5803 -81.9531 56° Northeast 310 357 14,700 2,580 Climbing Cleveland Center
11:31AM 41.6303 -81.8511 57° Northeast 320 368 17,100 2,280 Climbing Cleveland Center
11:32AM 41.6819 -81.7450 57° Northeast 330 380 19,400 1,740 Climbing Cleveland Center
11:33AM 41.7369 -81.6325 57° Northeast 351 404 20,800 1,500 Climbing Cleveland Center
11:34AM 41.7967 -81.5075 57° Northeast 387 445 22,600 1,620 Climbing Cleveland Center
11:35AM 41.8467 -81.3708 64° Northeast 404 465 24,200 1,500 Climbing Cleveland Center
11:36AM 41.8622 -81.2133 82° East 422 486 25,800 1,560 Climbing Cleveland Center
11:37AM 41.8475 -81.0528 97° East 432 497 27,400 1,440 Climbing Cleveland Center
11:38AM 41.8333 -80.8908 97° East 429 494 28,800 1,440 Climbing Cleveland Center
11:39AM 41.8142 -80.6942 97° East 447 514 30,400 1,320 Climbing Cleveland Center
11:40AM 41.7958 -80.5214 98° East 458 527 31,600 1,380 Climbing Cleveland Center
11:41AM 41.7789 -80.3481 97° East 463 533 33,300 1,620 Climbing Cleveland Center
11:42AM 41.7617 -80.1781 98° East 459 528 35,000 1,560 Climbing Cleveland Center
11:43AM 41.7439 -80.0119 98° East 449 517 36,500 960 Climbing Cleveland Center
11:44AM 41.7275 -79.8472 98° East 446 513 37,000 240 Climbing Cleveland Center
11:45AM 41.7103 -79.6847 98° East 442 509 37,000  Level Cleveland Center
11:46AM 41.6919 -79.5183 98° East 437 503 37,000  Level Cleveland Center
11:47AM 41.6750 -79.3564 98° East 439 505 37,000  Level Cleveland Center
11:48AM 41.6533 -79.1717 99° East 441 507 37,000  Level Cleveland Center
11:49AM 41.6358 -79.0006 98° East 441 507 37,000  Level Cleveland Center
11:50AM 41.6164 -78.8394 99° East 441 507 37,000  Level Cleveland Center
11:51AM 41.5989 -78.6792 98° East 441 507 37,000  Level Cleveland Center
11:52AM 41.5794 -78.5189 99° East 439 505 37,000 -300 Level Cleveland Center
11:54AM 41.5597 -78.3578 99° East 439 505 36,500 -1,260 Descending Cleveland Center
11:55AM 41.5403 -78.1950 99° East 440 506 34,400 -2,520 Descending Cleveland Center
11:56AM 41.5200 -78.0286 99° East 451 519 31,300 -1,680 Descending Cleveland Center
11:57AM 41.4936 -77.8275 100° East 458 527 31,000 -180 Descending Cleveland Center
11:58AM 41.4697 -77.6625 101° East 458 527 31,000  Level Cleveland Center
11:59AM 41.4386 -77.4986 104° East 458 527 31,000  Level Cleveland Center
12:00PM 41.4058 -77.3361 105° East 458 527 31,000  Level Cleveland Center
12:00PM 41.3814 -77.2272 107° East 456 525 31,000  Level New York Center
12:01PM 41.3503 -77.0667 104° East 456 525 31,000 -900 Level New York Center
12:02PM 41.3172 -76.9033 105° East 450 518 29,200 -2,100 Descending New York Center
12:03PM 41.2836 -76.7431 106° East 450 518 26,900 -2,340 Descending New York Center
12:04PM 41.2517 -76.5911 106° East 445 512 24,700 -2,220 Descending New York Center
12:05PM 41.2214 -76.4394 105° East 440 506 22,500 -2,100 Descending New York Center
12:06PM 41.1908 -76.2936 106° East 429 494 20,500 -2,100 Descending New York Center
12:07PM 41.1619 -76.1506 105° East 411 473 18,300 -1,320 Descending New York Center
12:08PM 41.1361 -76.0300 106° East 385 443 17,900 -1,500 Descending New York Center
12:10PM 41.0924 -75.8956 113° Southeast  Level FlightAware Approximate
12:10PM 41.0644 -75.7658 113° Southeast 367 422 13,900  Level New York Center
12:11PM 41.0319 -75.6425 109° East 357 411 13,000 -480 Descending New York Center
12:12PM 41.0008 -75.5358 111° Southeast 352 405 13,000 -1,020 Level New York Center
12:13PM 40.9625 -75.4011 111° Southeast 352 405 11,000 -1,500 Descending New York Center
12:14PM 40.9353 -75.2978 109° East 352 405 10,100 -1,140 Descending New York Center
12:15PM 40.9039 -75.1939 112° Southeast 323 372 8,700 -1,560 Descending New York Center
12:16PM 40.8744 -75.0850 110° East 295 339 7,100 -900 Descending New York Center
12:17PM 40.8447 -74.9844 111° Southeast 290 334 7,000 -60 Descending New York Center
12:18PM 40.8650 -74.8842 75° East 272 313 7,000 -420 Level New York Center
12:19PM 40.8933 -74.7869 69° East 277 319 6,200 -540 Descending New York Center
12:20PM 40.9172 -74.6978 70° East 282 325 6,000 -120 Descending New York Center
12:21PM 40.9356 -74.5836 78° East 282 325 6,000 -540 Level New York Center
12:22PM 40.9489 -74.4936 79° East 277 319 5,000 -540 Descending New York Center
12:23PM 40.9711 -74.3794 76° East 277 319 5,000 -300 Level New York Center
12:24PM 40.9833 -74.3167 76° East 250 288 4,600 -660 Descending New York TRACON
12:25PM 40.9833 -74.2333 90° East 240 276 4,000 -300 Descending New York TRACON
12:26PM 40.9667 -74.1667 108° East 193 222 4,000 -60 Level New York TRACON
12:27PM 40.9333 -74.1167 131° Southeast 195 224 3,900 -540 Descending New York TRACON
12:28PM 40.9000 -74.0833 143° Southeast 181 208 3,000 -480 Descending New York TRACON
12:29PM 40.8500 -74.0833 180° South 183 211 3,000 -600 Level New York TRACON
12:30PM 40.8000 -74.1000 194° South 169 194 1,900 -960 Descending New York TRACON
12:31PM 40.7500 -74.1167 194° South 167 192 1,100 -780 Descending New York TRACON
12:32PM 40.7167 -74.1500 217° Southwest 130 150 400 -720 Descending New York TRACON